Time;durP1;ratioP1;P1;durP2;ratioP2;P2;SDS_P1;SDS_P2;PMS_P1;PMS_P2;Temp;Humidity;BMP_temperature;BMP_pressure;BME280_temperature;BME280_humidity;BME280_pressure;Samples;Min_cycle;Max_cycle;Signal;HPM_P1;HPM_P2
2022/09/02 00:00:54;;;;;;;23.65;21.17;;;;;;;;;;10132749;28;20045;-61
2022/09/02 00:05:48;;;;;;;21.55;18.35;;;;;;;;;;10128619;28;20076;-60
2022/09/02 00:10:43;;;;;;;15.02;12.77;;;;;;;;;;10138405;28;20444;-61
2022/09/02 00:15:38;;;;;;;10.45;9.35;;;;;;;;;;10131753;28;20437;-61
2022/09/02 00:20:32;;;;;;;19.10;10.90;;;;;;;;;;10133145;28;20510;-61
2022/09/02 00:25:26;;;;;;;14.57;9.55;;;;;;;;;;10130433;28;20060;-60
2022/09/02 00:30:20;;;;;;;13.77;7.55;;;;;;;;;;10134753;28;20449;-61
2022/09/02 00:35:14;;;;;;;8.27;7.57;;;;;;;;;;10130957;28;20135;-61
2022/09/02 00:40:11;;;;;;;8.98;6.32;;;;;;;;;;10127966;28;20048;-62
2022/09/02 00:45:06;;;;;;;8.10;6.78;;;;;;;;;;10136287;28;20458;-61
2022/09/02 00:50:05;;;;;;;12.13;7.43;;;;;;;;;;10131991;28;20084;-61
2022/09/02 00:55:04;;;;;;;16.15;9.63;;;;;;;;;;10131078;28;20116;-61
2022/09/02 01:00:06;;;;;;;11.15;9.25;;;;;;;;;;10138042;28;20075;-61
2022/09/02 01:05:02;;;;;;;16.95;9.90;;;;;;;;;;10128810;28;20045;-61
2022/09/02 01:09:56;;;;;;;15.63;10.95;;;;;;;;;;10133137;28;20060;-61
2022/09/02 01:14:50;;;;;;;14.63;12.82;;;;;;;;;;10139309;28;20505;-61
2022/09/02 01:19:48;;;;;;;13.40;8.30;;;;;;;;;;10137021;28;20037;-61
2022/09/02 01:24:41;;;;;;;10.03;6.80;;;;;;;;;;10145160;28;20052;-62
2022/09/02 01:29:36;;;;;;;6.32;4.65;;;;;;;;;;10130926;28;20291;-62
2022/09/02 01:34:30;;;;;;;8.35;5.75;;;;;;;;;;10126264;28;20041;-61
2022/09/02 01:39:24;;;;;;;6.80;4.70;;;;;;;;;;10127023;28;20060;-62
2022/09/02 01:44:16;;;;;;;6.22;5.40;;;;;;;;;;10144775;28;20127;-62
2022/09/02 01:49:12;;;;;;;5.28;3.90;;;;;;;;;;10142256;28;20101;-61
2022/09/02 01:54:07;;;;;;;10.18;3.80;;;;;;;;;;10151441;28;20058;-62
2022/09/02 01:59:06;;;;;;;6.97;4.10;;;;;;;;;;10142300;28;20052;-61
2022/09/02 02:04:01;;;;;;;11.38;8.85;;;;;;;;;;10143929;28;20045;-61
2022/09/02 02:08:56;;;;;;;11.90;9.05;;;;;;;;;;10139435;28;20139;-61
2022/09/02 02:13:50;;;;;;;4.70;4.10;;;;;;;;;;10137663;28;20045;-61
2022/09/02 02:18:46;;;;;;;13.90;4.22;;;;;;;;;;10153546;28;20554;-61
2022/09/02 02:23:39;;;;;;;6.00;3.60;;;;;;;;;;10141721;28;20076;-61
2022/09/02 02:28:33;;;;;;;13.75;5.20;;;;;;;;;;10142034;28;20044;-61
2022/09/02 02:33:28;;;;;;;12.45;6.72;;;;;;;;;;10159986;28;20053;-61
2022/09/02 02:38:29;;;;;;;12.43;8.13;;;;;;;;;;10154094;28;20561;-61
2022/09/02 02:43:23;;;;;;;14.32;10.13;;;;;;;;;;10141921;28;20526;-61
2022/09/02 02:48:17;;;;;;;15.30;13.75;;;;;;;;;;10133305;28;20036;-61
2022/09/02 02:53:11;;;;;;;20.00;15.00;;;;;;;;;;10136300;28;20423;-61
2022/09/02 02:58:06;;;;;;;16.83;13.02;;;;;;;;;;10144509;28;20148;-62
2022/09/02 03:03:21;;;;;;;19.80;11.80;;;;;;;;;;10152727;28;20102;-61
2022/09/02 03:08:19;;;;;;;21.00;10.60;;;;;;;;;;10126384;28;20036;-61
2022/09/02 03:13:15;;;;;;;12.57;8.45;;;;;;;;;;10129848;28;20044;-61
2022/09/02 03:18:09;;;;;;;9.50;7.68;;;;;;;;;;10130705;28;20419;-61
2022/09/02 03:23:03;;;;;;;7.72;6.13;;;;;;;;;;10135467;28;20052;-62
2022/09/02 03:27:57;;;;;;;9.52;6.20;;;;;;;;;;10135878;28;20483;-61
2022/09/02 03:32:52;;;;;;;13.73;6.00;;;;;;;;;;10148122;28;20475;-62
2022/09/02 03:37:46;;;;;;;11.70;5.32;;;;;;;;;;10128736;28;20414;-61
2022/09/02 03:42:41;;;;;;;9.80;7.03;;;;;;;;;;10133180;28;20052;-61
2022/09/02 03:47:43;;;;;;;17.67;6.57;;;;;;;;;;10148037;28;20477;-62
2022/09/02 03:52:36;;;;;;;8.93;7.32;;;;;;;;;;10139427;28;20041;-61
2022/09/02 03:57:30;;;;;;;12.57;7.60;;;;;;;;;;10142000;28;20093;-61
2022/09/02 04:02:26;;;;;;;10.43;7.25;;;;;;;;;;10143326;28;20036;-61
2022/09/02 04:07:19;;;;;;;11.85;7.47;;;;;;;;;;10135126;28;20098;-61
2022/09/02 04:12:13;;;;;;;10.65;7.32;;;;;;;;;;10122938;28;20505;-61
2022/09/02 04:17:07;;;;;;;7.97;5.70;;;;;;;;;;10138855;28;20044;-62
2022/09/02 04:22:01;;;;;;;12.85;6.28;;;;;;;;;;10133464;28;20052;-61
2022/09/02 04:26:56;;;;;;;8.38;6.55;;;;;;;;;;10133292;28;20056;-61
2022/09/02 04:32:01;;;;;;;13.55;8.63;;;;;;;;;;10143659;28;20045;-62
2022/09/02 04:36:55;;;;;;;9.35;6.55;;;;;;;;;;10138937;28;20430;-61
2022/09/02 04:41:49;;;;;;;12.02;6.85;;;;;;;;;;10128503;28;20103;-62
2022/09/02 04:46:44;;;;;;;10.43;5.85;;;;;;;;;;10135186;28;20446;-61
2022/09/02 04:51:42;;;;;;;7.40;4.87;;;;;;;;;;10135768;28;20045;-62
2022/09/02 04:56:37;;;;;;;9.90;5.43;;;;;;;;;;10118297;28;20127;-61
2022/09/02 05:01:34;;;;;;;8.05;4.82;;;;;;;;;;10126943;28;20053;-61
2022/09/02 05:06:35;;;;;;;9.30;5.72;;;;;;;;;;10133634;28;20040;-62
2022/09/02 05:11:38;;;;;;;9.00;6.00;;;;;;;;;;10121336;28;20049;-61
2022/09/02 05:16:35;;;;;;;10.00;6.65;;;;;;;;;;10106578;28;20136;-61
2022/09/02 05:21:32;;;;;;;9.85;6.65;;;;;;;;;;10127509;28;20491;-61
2022/09/02 05:26:26;;;;;;;12.40;6.97;;;;;;;;;;10133555;28;20106;-62
2022/09/02 05:31:22;;;;;;;8.88;6.43;;;;;;;;;;10135076;28;20449;-60
2022/09/02 05:36:20;;;;;;;8.77;7.30;;;;;;;;;;10135539;28;20139;-60
2022/09/02 05:41:21;;;;;;;13.57;8.52;;;;;;;;;;10130825;28;20036;-60
2022/09/02 05:46:20;;;;;;;8.65;6.68;;;;;;;;;;10126065;28;20445;-60
2022/09/02 05:51:16;;;;;;;8.93;8.00;;;;;;;;;;10148575;28;20052;-60
2022/09/02 05:56:09;;;;;;;10.45;8.15;;;;;;;;;;10128020;28;20131;-60
2022/09/02 06:01:09;;;;;;;7.72;5.25;;;;;;;;;;10140368;28;20044;-62
2022/09/02 06:06:02;;;;;;;8.88;5.60;;;;;;;;;;10135642;28;20503;-63
2022/09/02 06:11:02;;;;;;;16.00;6.55;;;;;;;;;;10123147;28;20059;-60
2022/09/02 06:15:56;;;;;;;13.35;7.80;;;;;;;;;;10128675;28;20059;-60
2022/09/02 06:20:53;;;;;;;15.20;7.33;;;;;;;;;;10141839;28;20589;-60
2022/09/02 06:25:52;;;;;;;12.35;6.90;;;;;;;;;;10145702;28;20377;-60
2022/09/02 06:30:47;;;;;;;11.18;7.22;;;;;;;;;;10145960;28;20052;-59
2022/09/02 06:35:45;;;;;;;16.33;9.00;;;;;;;;;;10139001;28;20044;-60
2022/09/02 06:40:50;;;;;;;10.93;6.20;;;;;;;;;;10142462;28;20051;-59
2022/09/02 06:45:55;;;;;;;9.95;4.40;;;;;;;;;;10135801;28;20403;-60
2022/09/02 06:50:50;;;;;;;8.15;4.20;;;;;;;;;;10135447;28;20102;-59
2022/09/02 06:55:44;;;;;;;10.43;4.55;;;;;;;;;;10130720;28;20135;-60
2022/09/02 07:00:38;;;;;;;8.20;4.78;;;;;;;;;;10136521;28;20565;-60
2022/09/02 07:05:33;;;;;;;8.30;4.90;;;;;;;;;;10143600;28;20074;-60
2022/09/02 07:10:26;;;;;;;10.82;4.80;;;;;;;;;;10147304;28;20441;-61
2022/09/02 07:15:21;;;;;;;10.55;5.57;;;;;;;;;;10135215;28;20102;-59
2022/09/02 07:20:16;;;;;;;9.15;5.53;;;;;;;;;;10152480;28;20495;-59
2022/09/02 07:25:16;;;;;;;12.55;5.97;;;;;;;;;;10137276;28;20128;-59
2022/09/02 07:30:13;;;;;;;12.63;5.60;;;;;;;;;;10138523;28;20040;-60
2022/09/02 07:35:10;;;;;;;7.90;5.03;;;;;;;;;;10133343;28;20399;-60
2022/09/02 07:40:05;;;;;;;8.35;4.50;;;;;;;;;;10141990;28;20057;-60
2022/09/02 07:45:00;;;;;;;5.18;4.10;;;;;;;;;;10141418;28;20139;-60
2022/09/02 07:49:53;;;;;;;4.55;3.10;;;;;;;;;;10126925;28;20056;-61
2022/09/02 07:55:08;;;;;;;6.47;4.13;;;;;;;;;;10142742;28;20407;-61
2022/09/02 08:00:12;;;;;;;6.85;4.10;;;;;;;;;;10145350;28;20056;-60
2022/09/02 08:05:06;;;;;;;14.35;4.95;;;;;;;;;;10148901;28;20139;-61
2022/09/02 08:10:00;;;;;;;9.35;3.20;;;;;;;;;;10133817;28;20048;-61
2022/09/02 08:14:54;;;;;;;5.82;3.58;;;;;;;;;;10142988;28;20072;-61
2022/09/02 08:19:47;;;;;;;3.97;3.55;;;;;;;;;;10139539;28;20079;-61
2022/09/02 08:24:42;;;;;;;3.33;2.47;;;;;;;;;;10139866;28;20044;-62
2022/09/02 08:29:35;;;;;;;5.18;2.10;;;;;;;;;;10135326;28;20052;-61
2022/09/02 08:34:29;;;;;;;4.78;2.42;;;;;;;;;;10141002;28;20049;-61
2022/09/02 08:39:24;;;;;;;4.85;2.47;;;;;;;;;;10115766;28;20045;-61
2022/09/02 08:44:22;;;;;;;5.88;1.58;;;;;;;;;;10125735;28;20492;-61
2022/09/02 08:49:24;;;;;;;5.15;1.40;;;;;;;;;;10119424;28;20569;-62
2022/09/02 08:54:41;;;;;;;1.48;0.90;;;;;;;;;;10139301;28;20087;-62
2022/09/02 08:59:35;;;;;;;4.57;1.90;;;;;;;;;;10140979;28;20499;-61
2022/09/02 09:04:58;;;;;;;4.00;1.30;;;;;;;;;;10126226;28;20560;-61
2022/09/02 09:10:00;;;;;;;3.78;1.40;;;;;;;;;;10129833;28;20073;-62
2022/09/02 09:14:57;;;;;;;3.58;1.42;;;;;;;;;;10125504;28;20049;-62
2022/09/02 09:19:57;;;;;;;6.72;1.70;;;;;;;;;;10119783;28;20136;-62
2022/09/02 09:24:51;;;;;;;3.10;1.58;;;;;;;;;;10124765;28;20095;-61
2022/09/02 09:29:44;;;;;;;6.80;1.52;;;;;;;;;;10125737;28;20099;-61
2022/09/02 09:35:09;;;;;;;2.95;1.30;;;;;;;;;;10127261;28;20037;-62
2022/09/02 09:40:20;;;;;;;10.60;1.60;;;;;;;;;;10062738;28;20044;-62
2022/09/02 09:45:20;;;;;;;2.00;1.25;;;;;;;;;;10123537;28;20531;-62
2022/09/02 09:50:18;;;;;;;6.28;1.52;;;;;;;;;;10135082;28;20052;-62
2022/09/02 09:55:20;;;;;;;4.20;1.40;;;;;;;;;;10143998;28;20136;-62
2022/09/02 10:00:19;;;;;;;2.03;1.20;;;;;;;;;;10125781;28;20048;-62
2022/09/02 10:05:23;;;;;;;3.75;1.10;;;;;;;;;;10144574;28;20079;-62
2022/09/02 10:10:21;;;;;;;2.20;1.20;;;;;;;;;;10138702;28;20036;-62
2022/09/02 10:15:41;;;;;;;4.40;1.00;;;;;;;;;;10138891;28;20052;-61
2022/09/02 10:20:49;;;;;;;4.63;1.30;;;;;;;;;;10138147;28;20060;-62
2022/09/02 10:26:20;;;;;;;2.15;1.10;;;;;;;;;;10143898;28;20403;-62
2022/09/02 10:31:29;;;;;;;2.15;1.27;;;;;;;;;;10135032;28;20059;-61
2022/09/02 10:36:51;;;;;;;1.30;1.20;;;;;;;;;;10134075;28;20052;-60
2022/09/02 10:41:46;;;;;;;2.80;1.17;;;;;;;;;;10065741;28;20090;-61
2022/09/02 10:47:04;;;;;;;1.88;0.93;;;;;;;;;;10143536;28;20056;-62
2022/09/02 10:52:06;;;;;;;1.52;0.93;;;;;;;;;;10112114;28;20052;-61
2022/09/02 10:57:25;;;;;;;1.20;0.98;;;;;;;;;;10120200;28;20048;-61
2022/09/02 11:02:43;;;;;;;1.10;1.00;;;;;;;;;;10113600;28;20045;-62
2022/09/02 11:07:44;;;;;;;1.15;1.02;;;;;;;;;;10116957;28;20056;-62
2022/09/02 11:12:40;;;;;;;3.88;1.00;;;;;;;;;;10149344;28;20055;-62
2022/09/02 11:17:50;;;;;;;2.40;0.82;;;;;;;;;;10136960;28;20110;-61
2022/09/02 11:22:52;;;;;;;3.38;1.10;;;;;;;;;;10121805;28;20136;-61
2022/09/02 11:28:09;;;;;;;2.78;0.82;;;;;;;;;;10129787;28;20503;-62
2022/09/02 11:33:27;;;;;;;1.63;1.17;;;;;;;;;;10135609;28;20045;-61
2022/09/02 11:38:43;;;;;;;2.40;1.30;;;;;;;;;;10110574;28;20053;-61
2022/09/02 11:43:51;;;;;;;0.87;0.67;;;;;;;;;;10131159;28;20048;-63
2022/09/02 11:49:07;;;;;;;1.45;1.08;;;;;;;;;;10126468;28;20063;-63
2022/09/02 11:54:05;;;;;;;3.08;1.02;;;;;;;;;;10133676;28;20049;-65
2022/09/02 11:58:58;;;;;;;2.72;1.10;;;;;;;;;;10141479;28;20048;-64
2022/09/02 12:04:03;;;;;;;2.63;1.38;;;;;;;;;;10138171;28;20415;-66
2022/09/02 12:09:49;;;;;;;2.27;1.53;;;;;;;;;;10139709;28;20052;-64
2022/09/02 12:14:47;;;;;;;3.38;1.00;;;;;;;;;;10132783;28;20044;-63
2022/09/02 12:19:43;;;;;;;4.82;1.10;;;;;;;;;;10145145;28;20060;-64
2022/09/02 12:24:59;;;;;;;1.80;1.20;;;;;;;;;;10140926;28;20051;-64
2022/09/02 12:29:54;;;;;;;3.17;1.00;;;;;;;;;;10139166;28;20049;-63
2022/09/02 12:34:52;;;;;;;3.05;1.00;;;;;;;;;;10139744;28;20106;-63
2022/09/02 12:39:52;;;;;;;5.00;1.08;;;;;;;;;;10121763;28;20094;-63
2022/09/02 12:44:52;;;;;;;3.97;1.77;;;;;;;;;;10123130;28;20049;-62
2022/09/02 12:50:10;;;;;;;3.35;1.00;;;;;;;;;;10129818;28;20048;-62
2022/09/02 12:55:24;;;;;;;2.40;0.90;;;;;;;;;;10134706;28;20057;-62
2022/09/02 13:00:50;;;;;;;2.72;1.38;;;;;;;;;;10132397;28;20486;-62
2022/09/02 13:05:55;;;;;;;5.80;1.00;;;;;;;;;;10132740;28;20060;-62
2022/09/02 13:10:55;;;;;;;2.28;1.10;;;;;;;;;;10129892;28;20513;-63
2022/09/02 13:16:07;;;;;;;4.05;1.13;;;;;;;;;;10128396;28;20574;-62
2022/09/02 13:21:43;;;;;;;4.50;1.17;;;;;;;;;;10136883;28;20041;-63
2022/09/02 13:26:55;;;;;;;3.65;1.08;;;;;;;;;;10139485;28;20445;-62
2022/09/02 13:32:18;;;;;;;2.97;1.20;;;;;;;;;;10124276;28;20064;-62
2022/09/02 13:37:43;;;;;;;1.80;1.30;;;;;;;;;;10130602;28;20079;-62
2022/09/02 13:42:38;;;;;;;3.63;1.10;;;;;;;;;;10138678;28;20487;-63
2022/09/02 13:47:32;;;;;;;4.03;1.20;;;;;;;;;;10144719;28;20049;-63
2022/09/02 13:52:28;;;;;;;2.15;1.17;;;;;;;;;;10146009;28;20055;-63
2022/09/02 13:57:44;;;;;;;5.77;1.30;;;;;;;;;;10145614;28;20076;-63
2022/09/02 14:02:37;;;;;;;6.53;1.30;;;;;;;;;;10146999;28;20047;-62
2022/09/02 14:07:42;;;;;;;1.63;1.00;;;;;;;;;;10146801;28;20048;-61
2022/09/02 14:12:38;;;;;;;10.67;1.63;;;;;;;;;;10137272;28;20048;-61
2022/09/02 14:17:33;;;;;;;4.95;1.27;;;;;;;;;;10145278;28;20048;-61
2022/09/02 14:22:28;;;;;;;1.38;1.20;;;;;;;;;;10134793;28;20051;-62
2022/09/02 14:27:22;;;;;;;2.85;1.45;;;;;;;;;;10129780;28;20067;-61
2022/09/02 14:32:27;;;;;;;6.13;1.08;;;;;;;;;;10139263;28;20040;-61
2022/09/02 14:37:27;;;;;;;2.35;1.70;;;;;;;;;;10130304;28;20099;-61
2022/09/02 14:42:21;;;;;;;3.13;1.50;;;;;;;;;;10132545;28;20049;-61
2022/09/02 14:47:15;;;;;;;3.58;1.42;;;;;;;;;;10138435;28;20068;-61
2022/09/02 14:52:21;;;;;;;2.90;1.75;;;;;;;;;;10135989;28;20444;-61
2022/09/02 14:57:23;;;;;;;4.03;1.52;;;;;;;;;;10129619;28;20045;-63
2022/09/02 15:02:27;;;;;;;7.30;1.60;;;;;;;;;;10145864;28;20422;-62
2022/09/02 15:07:22;;;;;;;5.25;1.77;;;;;;;;;;10137477;28;20056;-61
2022/09/02 15:12:37;;;;;;;7.07;2.25;;;;;;;;;;10143616;28;20060;-62
2022/09/02 15:17:31;;;;;;;6.97;1.58;;;;;;;;;;10150107;28;20505;-62
2022/09/02 15:22:26;;;;;;;5.55;1.48;;;;;;;;;;10146517;28;20068;-62
2022/09/02 15:27:19;;;;;;;5.20;1.50;;;;;;;;;;10143709;28;20060;-70
2022/09/02 15:32:13;;;;;;;1.50;1.40;;;;;;;;;;10120619;28;20060;-70
2022/09/02 15:37:07;;;;;;;1.33;1.23;;;;;;;;;;10133382;28;20059;-72
2022/09/02 15:42:06;;;;;;;4.55;2.00;;;;;;;;;;10129034;28;20120;-72
2022/09/02 15:47:00;;;;;;;6.82;1.50;;;;;;;;;;10122090;28;20064;-72
2022/09/02 15:51:53;;;;;;;2.25;1.95;;;;;;;;;;10136964;28;20098;-71
2022/09/02 15:56:48;;;;;;;5.05;2.00;;;;;;;;;;10146989;28;20052;-71
2022/09/02 16:01:46;;;;;;;2.20;1.67;;;;;;;;;;10140753;28;20040;-70
2022/09/02 16:07:00;;;;;;;1.95;1.67;;;;;;;;;;10130886;28;20036;-71
2022/09/02 16:11:55;;;;;;;4.32;1.40;;;;;;;;;;10135704;28;20105;-72
2022/09/02 16:16:49;;;;;;;7.45;1.77;;;;;;;;;;10141925;28;20053;-71
2022/09/02 16:21:43;;;;;;;5.70;1.63;;;;;;;;;;10142738;28;20103;-71
2022/09/02 16:26:38;;;;;;;4.40;2.17;;;;;;;;;;10138846;28;20061;-71
2022/09/02 16:31:34;;;;;;;2.22;1.75;;;;;;;;;;10144822;28;20049;-71
2022/09/02 16:36:29;;;;;;;5.18;1.83;;;;;;;;;;10154638;28;20047;-71
2022/09/02 16:41:38;;;;;;;3.25;2.17;;;;;;;;;;10143699;28;20450;-71
2022/09/02 16:46:32;;;;;;;6.05;1.75;;;;;;;;;;10133741;28;20437;-71
2022/09/02 16:51:26;;;;;;;6.03;2.40;;;;;;;;;;10146265;28;20137;-71
2022/09/02 16:56:20;;;;;;;6.00;2.97;;;;;;;;;;10144537;28;20072;-71
2022/09/02 17:01:14;;;;;;;10.00;2.83;;;;;;;;;;10145173;28;20056;-70
2022/09/02 17:06:08;;;;;;;5.07;2.78;;;;;;;;;;10139057;28;20048;-71
2022/09/02 17:11:22;;;;;;;14.07;6.68;;;;;;;;;;10138169;28;20049;-72
2022/09/02 17:16:16;;;;;;;2.67;2.33;;;;;;;;;;10134699;28;20048;-71
2022/09/02 17:21:21;;;;;;;3.22;1.63;;;;;;;;;;10120173;28;20500;-70
2022/09/02 17:26:18;;;;;;;8.82;1.70;;;;;;;;;;10124606;28;20053;-72
2022/09/02 17:31:21;;;;;;;6.95;1.88;;;;;;;;;;10141222;28;20045;-70
2022/09/02 17:36:15;;;;;;;3.95;2.50;;;;;;;;;;10126513;28;20044;-72
2022/09/02 17:46:22;;;;;;;2.50;1.95;;;;;;;;;;10134044;28;20057;-73
2022/09/02 17:51:17;;;;;;;4.75;2.78;;;;;;;;;;10122926;28;20128;-74
2022/09/02 17:56:30;;;;;;;3.13;1.88;;;;;;;;;;10135131;28;20041;-74
2022/09/02 18:01:27;;;;;;;6.28;1.98;;;;;;;;;;10116987;28;20078;-75
2022/09/02 18:06:27;;;;;;;6.18;2.00;;;;;;;;;;10129527;28;20056;-73
2022/09/02 18:11:21;;;;;;;5.68;2.13;;;;;;;;;;10128713;28;20056;-73
2022/09/02 18:16:33;;;;;;;7.95;2.53;;;;;;;;;;10120878;28;20048;-74
2022/09/02 18:21:37;;;;;;;5.85;1.83;;;;;;;;;;10125971;28;20515;-71
2022/09/02 18:26:43;;;;;;;4.90;2.33;;;;;;;;;;10123165;28;20068;-73
2022/09/02 18:31:53;;;;;;;6.10;2.30;;;;;;;;;;10202711;22;20056;-59
2022/09/02 18:36:55;;;;;;;4.68;2.00;;;;;;;;;;10143700;28;20494;-59
2022/09/02 18:42:38;;;;;;;5.30;2.35;;;;;;;;;;10118513;28;20053;-59
2022/09/02 18:47:42;;;;;;;3.17;1.90;;;;;;;;;;10106325;28;20049;-61
2022/09/02 18:52:55;;;;;;;6.28;2.30;;;;;;;;;;10108654;28;20557;-61
2022/09/02 18:58:16;;;;;;;5.25;2.60;;;;;;;;;;10115233;28;20045;-62
2022/09/02 19:03:31;;;;;;;2.53;1.73;;;;;;;;;;10110280;28;20087;-61
2022/09/02 19:08:36;;;;;;;4.90;2.30;;;;;;;;;;10100461;28;20068;-61
2022/09/02 19:13:42;;;;;;;3.30;2.05;;;;;;;;;;10109834;28;20087;-62
2022/09/02 19:18:36;;;;;;;6.70;3.33;;;;;;;;;;10108382;28;20099;-58
2022/09/02 19:23:30;;;;;;;5.32;2.40;;;;;;;;;;10113927;28;20076;-58
2022/09/02 19:28:23;;;;;;;3.03;2.35;;;;;;;;;;10108129;28;20145;-58
2022/09/02 19:33:17;;;;;;;5.10;2.60;;;;;;;;;;10113237;28;20044;-58
2022/09/02 19:38:14;;;;;;;7.05;2.53;;;;;;;;;;10109173;28;20052;-58
2022/09/02 19:43:11;;;;;;;5.35;2.28;;;;;;;;;;10115056;28;20148;-59
2022/09/02 19:48:09;;;;;;;3.22;2.22;;;;;;;;;;10110618;28;20487;-61
2022/09/02 19:53:03;;;;;;;3.60;2.45;;;;;;;;;;10110808;28;20041;-58
2022/09/02 19:57:59;;;;;;;4.65;1.90;;;;;;;;;;10109434;28;20052;-58
2022/09/02 20:02:53;;;;;;;2.85;2.05;;;;;;;;;;10096113;28;20529;-59
2022/09/02 20:07:48;;;;;;;6.40;2.40;;;;;;;;;;10103867;28;20132;-59
2022/09/02 20:12:43;;;;;;;7.00;2.35;;;;;;;;;;10101916;28;20125;-59
2022/09/02 20:17:37;;;;;;;7.60;2.47;;;;;;;;;;10100097;28;20049;-59
2022/09/02 20:22:30;;;;;;;3.80;2.55;;;;;;;;;;10098611;28;20140;-59
2022/09/02 20:27:41;;;;;;;3.50;2.83;;;;;;;;;;10093695;28;20051;-58
2022/09/02 20:32:57;;;;;;;3.83;2.30;;;;;;;;;;10099500;28;20045;-58
2022/09/02 20:37:56;;;;;;;6.72;2.50;;;;;;;;;;10099266;28;20071;-59
2022/09/02 20:42:51;;;;;;;7.88;3.20;;;;;;;;;;10105687;28;20056;-58
2022/09/02 20:47:59;;;;;;;3.05;2.55;;;;;;;;;;10104311;28;20124;-59
2022/09/02 20:53:16;;;;;;;4.13;2.47;;;;;;;;;;10088325;28;20071;-58
2022/09/02 20:59:01;;;;;;;5.47;2.80;;;;;;;;;;10083356;28;20099;-59
2022/09/02 21:04:13;;;;;;;3.97;3.10;;;;;;;;;;9987344;28;20058;-58
2022/09/02 21:09:18;;;;;;;5.22;3.42;;;;;;;;;;10095067;28;20075;-61
2022/09/02 21:14:22;;;;;;;3.25;2.95;;;;;;;;;;10086716;28;20048;-58
2022/09/02 21:19:35;;;;;;;8.93;3.30;;;;;;;;;;10087331;28;20044;-57
2022/09/02 21:24:42;;;;;;;4.45;2.70;;;;;;;;;;10103847;28;20132;-60
2022/09/02 21:29:48;;;;;;;4.63;3.03;;;;;;;;;;10099837;28;20533;-59
2022/09/02 21:34:59;;;;;;;8.90;3.50;;;;;;;;;;10105101;28;20044;-57
2022/09/02 21:39:57;;;;;;;5.00;3.58;;;;;;;;;;10103344;28;20049;-57
2022/09/02 21:45:02;;;;;;;4.10;3.03;;;;;;;;;;10111117;28;20052;-57
2022/09/02 21:50:14;;;;;;;6.32;3.03;;;;;;;;;;10106109;28;20126;-57
2022/09/02 21:55:31;;;;;;;5.18;3.22;;;;;;;;;;10107864;28;20068;-59
2022/09/02 22:00:25;;;;;;;4.53;3.67;;;;;;;;;;10111346;28;20052;-57
2022/09/02 22:05:50;;;;;;;5.70;3.65;;;;;;;;;;10117164;28;20048;-56
2022/09/02 22:10:58;;;;;;;5.60;4.78;;;;;;;;;;10113036;28;20059;-57
2022/09/02 22:16:11;;;;;;;11.47;6.03;;;;;;;;;;10111817;28;20053;-57
2022/09/02 22:21:45;;;;;;;6.88;6.18;;;;;;;;;;10116164;28;20081;-57
2022/09/02 22:27:07;;;;;;;6.43;5.07;;;;;;;;;;10096257;28;20118;-57
2022/09/02 22:32:04;;;;;;;10.02;5.32;;;;;;;;;;10114269;28;20136;-56
2022/09/02 22:37:03;;;;;;;6.43;5.30;;;;;;;;;;10112118;28;20114;-56
2022/09/02 22:42:36;;;;;;;15.15;5.63;;;;;;;;;;10118804;28;20048;-57
2022/09/02 22:52:48;;;;;;;10.77;5.50;;;;;;;;;;10109421;28;20511;-56
2022/09/02 22:57:55;;;;;;;6.22;5.57;;;;;;;;;;10115995;28;20040;-57
2022/09/02 23:03:15;;;;;;;13.82;5.68;;;;;;;;;;10106576;28;20048;-57
2022/09/02 23:08:09;;;;;;;11.07;5.65;;;;;;;;;;10103478;28;20060;-57
2022/09/02 23:13:11;;;;;;;8.73;4.97;;;;;;;;;;10098541;28;20132;-57
2022/09/02 23:18:20;;;;;;;8.82;6.05;;;;;;;;;;10110514;28;20053;-57
2022/09/02 23:23:38;;;;;;;11.25;5.93;;;;;;;;;;10112174;28;20422;-57
2022/09/02 23:28:44;;;;;;;9.02;6.55;;;;;;;;;;10105119;28;21021;-57
2022/09/02 23:33:48;;;;;;;9.05;6.28;;;;;;;;;;10103547;28;20094;-57
2022/09/02 23:38:51;;;;;;;9.45;6.28;;;;;;;;;;10094865;28;20072;-57
2022/09/02 23:43:45;;;;;;;17.70;12.25;;;;;;;;;;10110323;28;20048;-57
2022/09/02 23:48:41;;;;;;;15.98;12.55;;;;;;;;;;10116219;28;20136;-58
2022/09/02 23:53:45;;;;;;;10.93;9.82;;;;;;;;;;10116960;28;20049;-57
2022/09/02 23:58:51;;;;;;;15.30;10.02;;;;;;;;;;10121649;28;20045;-57
